aviador You're here:

KSPA Decoded Metar

SPARTANBURG VOR in SC, USA
Report Time2017-12-18 08:55:00
UTC Time2017-12-18 09:05:48
Flight Rules mvfr MVFR
WindCalm
Visibility9999 m
Phenomena:N/A
Clouds:Overcast 018 Hf
Expected CloudBase > 1,600 ft AGL from Temp-Dew spread
Ceiling1,800 ft
Temp07°C (ISA -6)
Dew Point03°C (76% RH)
AAT5.5°C
QNH1021 hPa
Density Alt108 ft
Elevation994 ft
Report Wrong Elevation
Raw Report
METAR KSPA 180855Z AUTO 00000KT 10SM OVC018 07/03 A3015 RMK AO2=

Extra information for KSPA:More info

Metar Taf Metar & Taf Last 4 Metars F.Rules Stats Wind Profile Meteogram Temp Stats Airport Information Weather charts Add Link Nearby VenuesMetar ALERT Operation Metar Decoded Social comments

AIRNAV info for KSPA